sensor_id;sensor_type;location;lat;lon;timestamp;P1;durP1;ratioP1;P2;durP2;ratioP2
71937;SDS011;59810;48.800;9.086;2023-02-15T00:01:39;36.25;;;13.38;;
71937;SDS011;59810;48.800;9.086;2023-02-15T00:04:05;30.75;;;13.23;;
71937;SDS011;59810;48.800;9.086;2023-02-15T00:06:32;32.58;;;12.65;;
71937;SDS011;59810;48.800;9.086;2023-02-15T00:08:58;39.03;;;14.27;;
71937;SDS011;59810;48.800;9.086;2023-02-15T00:11:24;36.78;;;13.65;;
71937;SDS011;59810;48.800;9.086;2023-02-15T00:14:15;35.13;;;13.77;;
71937;SDS011;59810;48.800;9.086;2023-02-15T00:16:42;30.20;;;12.40;;
71937;SDS011;59810;48.800;9.086;2023-02-15T00:19:09;33.60;;;12.98;;
71937;SDS011;59810;48.800;9.086;2023-02-15T00:21:35;32.30;;;13.18;;
71937;SDS011;59810;48.800;9.086;2023-02-15T00:24:02;33.42;;;13.15;;
71937;SDS011;59810;48.800;9.086;2023-02-15T00:26:28;34.30;;;13.15;;
71937;SDS011;59810;48.800;9.086;2023-02-15T00:28:54;34.60;;;13.33;;
71937;SDS011;59810;48.800;9.086;2023-02-15T00:31:20;32.15;;;13.52;;
71937;SDS011;59810;48.800;9.086;2023-02-15T00:33:46;35.70;;;13.27;;
71937;SDS011;59810;48.800;9.086;2023-02-15T00:36:12;33.73;;;12.93;;
71937;SDS011;59810;48.800;9.086;2023-02-15T00:38:38;34.30;;;14.43;;
71937;SDS011;59810;48.800;9.086;2023-02-15T00:41:04;34.33;;;13.25;;
71937;SDS011;59810;48.800;9.086;2023-02-15T00:43:32;29.85;;;12.75;;
71937;SDS011;59810;48.800;9.086;2023-02-15T00:45:58;32.23;;;12.67;;
71937;SDS011;59810;48.800;9.086;2023-02-15T00:48:24;28.98;;;13.25;;
71937;SDS011;59810;48.800;9.086;2023-02-15T00:50:51;33.53;;;14.05;;
71937;SDS011;59810;48.800;9.086;2023-02-15T00:53:20;35.90;;;14.55;;
71937;SDS011;59810;48.800;9.086;2023-02-15T00:55:47;32.90;;;13.20;;
71937;SDS011;59810;48.800;9.086;2023-02-15T00:58:12;35.50;;;14.52;;
71937;SDS011;59810;48.800;9.086;2023-02-15T01:00:39;35.88;;;14.60;;
71937;SDS011;59810;48.800;9.086;2023-02-15T01:03:06;33.80;;;14.65;;
71937;SDS011;59810;48.800;9.086;2023-02-15T01:05:31;32.33;;;14.07;;
71937;SDS011;59810;48.800;9.086;2023-02-15T01:07:57;34.72;;;13.80;;
71937;SDS011;59810;48.800;9.086;2023-02-15T01:10:27;30.13;;;13.43;;
71937;SDS011;59810;48.800;9.086;2023-02-15T01:12:53;30.93;;;12.40;;
71937;SDS011;59810;48.800;9.086;2023-02-15T01:15:19;33.75;;;13.45;;
71937;SDS011;59810;48.800;9.086;2023-02-15T01:17:45;36.00;;;13.95;;
71937;SDS011;59810;48.800;9.086;2023-02-15T01:20:16;32.85;;;12.57;;
71937;SDS011;59810;48.800;9.086;2023-02-15T01:22:42;34.87;;;14.00;;
71937;SDS011;59810;48.800;9.086;2023-02-15T01:25:07;31.10;;;13.13;;
71937;SDS011;59810;48.800;9.086;2023-02-15T01:27:33;38.50;;;13.90;;
71937;SDS011;59810;48.800;9.086;2023-02-15T01:29:58;35.13;;;13.93;;
71937;SDS011;59810;48.800;9.086;2023-02-15T01:32:26;33.35;;;13.80;;
71937;SDS011;59810;48.800;9.086;2023-02-15T01:34:52;31.77;;;13.13;;
71937;SDS011;59810;48.800;9.086;2023-02-15T01:37:17;31.20;;;12.38;;
71937;SDS011;59810;48.800;9.086;2023-02-15T01:39:43;33.07;;;13.07;;
71937;SDS011;59810;48.800;9.086;2023-02-15T01:42:11;34.40;;;14.23;;
71937;SDS011;59810;48.800;9.086;2023-02-15T01:53:05;32.40;;;12.60;;
71937;SDS011;59810;48.800;9.086;2023-02-15T01:55:59;34.40;;;14.03;;
71937;SDS011;59810;48.800;9.086;2023-02-15T01:58:30;31.65;;;13.00;;
71937;SDS011;59810;48.800;9.086;2023-02-15T02:00:59;33.03;;;13.23;;
71937;SDS011;59810;48.800;9.086;2023-02-15T02:03:38;29.45;;;12.88;;
71937;SDS011;59810;48.800;9.086;2023-02-15T02:06:21;29.17;;;12.77;;
71937;SDS011;59810;48.800;9.086;2023-02-15T02:08:47;30.20;;;13.37;;
71937;SDS011;59810;48.800;9.086;2023-02-15T02:11:14;36.33;;;13.85;;
71937;SDS011;59810;48.800;9.086;2023-02-15T02:13:40;33.78;;;12.65;;
71937;SDS011;59810;48.800;9.086;2023-02-15T02:16:09;34.57;;;15.13;;
71937;SDS011;59810;48.800;9.086;2023-02-15T02:18:57;36.30;;;14.57;;
71937;SDS011;59810;48.800;9.086;2023-02-15T02:27:34;64.05;;;18.73;;
71937;SDS011;59810;48.800;9.086;2023-02-15T02:35:27;78.60;;;19.27;;
71937;SDS011;59810;48.800;9.086;2023-02-15T02:49:39;64.93;;;17.73;;
71937;SDS011;59810;48.800;9.086;2023-02-15T02:52:31;75.25;;;18.08;;
71937;SDS011;59810;48.800;9.086;2023-02-15T02:54:57;74.70;;;18.60;;
71937;SDS011;59810;48.800;9.086;2023-02-15T02:57:24;88.70;;;19.77;;
71937;SDS011;59810;48.800;9.086;2023-02-15T02:59:51;77.22;;;19.67;;
71937;SDS011;59810;48.800;9.086;2023-02-15T03:02:23;96.97;;;21.08;;
71937;SDS011;59810;48.800;9.086;2023-02-15T03:04:55;114.70;;;20.42;;
71937;SDS011;59810;48.800;9.086;2023-02-15T03:07:28;121.90;;;22.88;;
71937;SDS011;59810;48.800;9.086;2023-02-15T03:09:56;132.10;;;21.83;;
71937;SDS011;59810;48.800;9.086;2023-02-15T03:12:24;85.90;;;20.23;;
71937;SDS011;59810;48.800;9.086;2023-02-15T03:14:56;88.35;;;20.77;;
71937;SDS011;59810;48.800;9.086;2023-02-15T03:17:27;69.78;;;17.90;;
71937;SDS011;59810;48.800;9.086;2023-02-15T03:20:00;99.18;;;19.02;;
71937;SDS011;59810;48.800;9.086;2023-02-15T03:22:38;89.70;;;18.57;;
71937;SDS011;59810;48.800;9.086;2023-02-15T03:25:21;93.75;;;18.48;;
71937;SDS011;59810;48.800;9.086;2023-02-15T03:27:49;125.38;;;19.13;;
71937;SDS011;59810;48.800;9.086;2023-02-15T03:30:20;91.82;;;19.17;;
71937;SDS011;59810;48.800;9.086;2023-02-15T03:32:48;93.32;;;19.75;;
71937;SDS011;59810;48.800;9.086;2023-02-15T03:35:15;68.17;;;18.20;;
71937;SDS011;59810;48.800;9.086;2023-02-15T03:37:43;67.82;;;18.30;;
71937;SDS011;59810;48.800;9.086;2023-02-15T03:40:21;80.97;;;18.50;;
71937;SDS011;59810;48.800;9.086;2023-02-15T03:43:21;94.82;;;19.63;;
71937;SDS011;59810;48.800;9.086;2023-02-15T03:45:56;90.70;;;19.38;;
71937;SDS011;59810;48.800;9.086;2023-02-15T03:48:32;89.53;;;19.63;;
71937;SDS011;59810;48.800;9.086;2023-02-15T03:51:03;92.88;;;21.38;;
71937;SDS011;59810;48.800;9.086;2023-02-15T03:54:08;93.43;;;20.50;;
71937;SDS011;59810;48.800;9.086;2023-02-15T03:56:38;77.55;;;20.73;;
71937;SDS011;59810;48.800;9.086;2023-02-15T03:59:06;89.10;;;20.35;;
71937;SDS011;59810;48.800;9.086;2023-02-15T04:07:03;76.00;;;18.13;;
71937;SDS011;59810;48.800;9.086;2023-02-15T04:09:30;46.78;;;15.70;;
71937;SDS011;59810;48.800;9.086;2023-02-15T04:12:14;40.63;;;15.48;;
71937;SDS011;59810;48.800;9.086;2023-02-15T04:14:40;42.90;;;16.23;;
71937;SDS011;59810;48.800;9.086;2023-02-15T04:17:26;44.60;;;16.95;;
71937;SDS011;59810;48.800;9.086;2023-02-15T04:19:52;36.23;;;14.77;;
71937;SDS011;59810;48.800;9.086;2023-02-15T04:22:36;33.70;;;13.95;;
71937;SDS011;59810;48.800;9.086;2023-02-15T04:25:22;50.73;;;15.13;;
71937;SDS011;59810;48.800;9.086;2023-02-15T04:27:50;59.20;;;15.25;;
71937;SDS011;59810;48.800;9.086;2023-02-15T04:30:19;37.28;;;13.57;;
71937;SDS011;59810;48.800;9.086;2023-02-15T04:32:48;50.65;;;14.30;;
71937;SDS011;59810;48.800;9.086;2023-02-15T04:35:14;51.90;;;14.18;;
71937;SDS011;59810;48.800;9.086;2023-02-15T04:37:40;42.33;;;13.97;;
71937;SDS011;59810;48.800;9.086;2023-02-15T04:40:06;68.55;;;16.42;;
71937;SDS011;59810;48.800;9.086;2023-02-15T04:42:33;58.60;;;15.90;;
71937;SDS011;59810;48.800;9.086;2023-02-15T04:44:59;49.77;;;15.37;;
71937;SDS011;59810;48.800;9.086;2023-02-15T04:47:24;60.67;;;15.70;;
71937;SDS011;59810;48.800;9.086;2023-02-15T04:49:50;51.77;;;16.43;;
71937;SDS011;59810;48.800;9.086;2023-02-15T04:52:15;39.95;;;16.02;;
71937;SDS011;59810;48.800;9.086;2023-02-15T04:54:43;41.53;;;15.83;;
71937;SDS011;59810;48.800;9.086;2023-02-15T04:57:09;50.80;;;17.10;;
71937;SDS011;59810;48.800;9.086;2023-02-15T04:59:34;44.20;;;16.00;;
71937;SDS011;59810;48.800;9.086;2023-02-15T05:02:02;39.88;;;15.40;;
71937;SDS011;59810;48.800;9.086;2023-02-15T05:04:27;44.33;;;16.75;;
71937;SDS011;59810;48.800;9.086;2023-02-15T05:06:53;38.97;;;15.47;;
71937;SDS011;59810;48.800;9.086;2023-02-15T05:09:18;38.57;;;15.97;;
71937;SDS011;59810;48.800;9.086;2023-02-15T05:11:43;31.93;;;13.20;;
71937;SDS011;59810;48.800;9.086;2023-02-15T05:14:09;37.03;;;14.30;;
71937;SDS011;59810;48.800;9.086;2023-02-15T05:16:34;39.63;;;14.37;;
71937;SDS011;59810;48.800;9.086;2023-02-15T05:19:00;34.30;;;13.98;;
71937;SDS011;59810;48.800;9.086;2023-02-15T05:21:25;37.20;;;13.70;;
71937;SDS011;59810;48.800;9.086;2023-02-15T05:23:51;29.40;;;12.70;;
71937;SDS011;59810;48.800;9.086;2023-02-15T05:26:17;29.92;;;12.15;;
71937;SDS011;59810;48.800;9.086;2023-02-15T05:29:03;36.20;;;12.57;;
71937;SDS011;59810;48.800;9.086;2023-02-15T05:31:30;31.05;;;11.50;;
71937;SDS011;59810;48.800;9.086;2023-02-15T05:33:58;38.22;;;14.40;;
71937;SDS011;59810;48.800;9.086;2023-02-15T05:36:26;37.80;;;14.20;;
71937;SDS011;59810;48.800;9.086;2023-02-15T05:38:54;41.83;;;14.20;;
71937;SDS011;59810;48.800;9.086;2023-02-15T05:41:20;45.42;;;13.63;;
71937;SDS011;59810;48.800;9.086;2023-02-15T05:43:46;39.58;;;13.20;;
71937;SDS011;59810;48.800;9.086;2023-02-15T05:46:12;45.60;;;14.03;;
71937;SDS011;59810;48.800;9.086;2023-02-15T05:48:38;36.13;;;13.00;;
71937;SDS011;59810;48.800;9.086;2023-02-15T05:51:10;35.23;;;14.47;;
71937;SDS011;59810;48.800;9.086;2023-02-15T05:53:40;43.33;;;13.68;;
71937;SDS011;59810;48.800;9.086;2023-02-15T05:56:07;27.97;;;12.27;;
71937;SDS011;59810;48.800;9.086;2023-02-15T05:58:38;32.58;;;13.57;;
71937;SDS011;59810;48.800;9.086;2023-02-15T06:01:08;36.63;;;13.25;;
71937;SDS011;59810;48.800;9.086;2023-02-15T06:03:34;30.70;;;13.07;;
71937;SDS011;59810;48.800;9.086;2023-02-15T06:05:59;32.17;;;13.27;;
71937;SDS011;59810;48.800;9.086;2023-02-15T06:08:29;28.33;;;11.75;;
71937;SDS011;59810;48.800;9.086;2023-02-15T06:10:55;29.93;;;12.63;;
71937;SDS011;59810;48.800;9.086;2023-02-15T06:13:23;26.23;;;11.23;;
71937;SDS011;59810;48.800;9.086;2023-02-15T06:15:48;31.00;;;12.67;;
71937;SDS011;59810;48.800;9.086;2023-02-15T06:18:16;27.23;;;10.90;;
71937;SDS011;59810;48.800;9.086;2023-02-15T06:20:41;26.05;;;11.48;;
71937;SDS011;59810;48.800;9.086;2023-02-15T06:23:06;24.70;;;10.77;;
71937;SDS011;59810;48.800;9.086;2023-02-15T06:25:32;28.40;;;12.13;;
71937;SDS011;59810;48.800;9.086;2023-02-15T06:27:57;27.13;;;11.97;;
71937;SDS011;59810;48.800;9.086;2023-02-15T06:30:22;28.83;;;12.00;;
71937;SDS011;59810;48.800;9.086;2023-02-15T06:32:48;27.07;;;11.23;;
71937;SDS011;59810;48.800;9.086;2023-02-15T06:35:13;28.13;;;11.80;;
71937;SDS011;59810;48.800;9.086;2023-02-15T06:37:39;31.43;;;11.30;;
71937;SDS011;59810;48.800;9.086;2023-02-15T06:40:04;25.02;;;11.80;;
71937;SDS011;59810;48.800;9.086;2023-02-15T06:42:30;25.83;;;11.82;;
71937;SDS011;59810;48.800;9.086;2023-02-15T06:44:58;28.42;;;11.18;;
71937;SDS011;59810;48.800;9.086;2023-02-15T06:47:25;25.63;;;11.30;;
71937;SDS011;59810;48.800;9.086;2023-02-15T06:49:50;25.67;;;10.83;;
71937;SDS011;59810;48.800;9.086;2023-02-15T06:52:15;27.07;;;11.80;;
71937;SDS011;59810;48.800;9.086;2023-02-15T06:54:41;31.40;;;12.47;;
71937;SDS011;59810;48.800;9.086;2023-02-15T06:57:06;25.30;;;10.97;;
71937;SDS011;59810;48.800;9.086;2023-02-15T06:59:31;27.33;;;11.63;;
71937;SDS011;59810;48.800;9.086;2023-02-15T07:01:57;31.37;;;11.63;;
71937;SDS011;59810;48.800;9.086;2023-02-15T07:04:22;28.50;;;12.30;;
71937;SDS011;59810;48.800;9.086;2023-02-15T07:06:47;30.87;;;11.90;;
71937;SDS011;59810;48.800;9.086;2023-02-15T07:09:13;37.70;;;12.57;;
71937;SDS011;59810;48.800;9.086;2023-02-15T07:11:38;30.40;;;13.50;;
71937;SDS011;59810;48.800;9.086;2023-02-15T07:14:22;31.40;;;13.80;;
71937;SDS011;59810;48.800;9.086;2023-02-15T07:16:47;28.17;;;12.82;;
71937;SDS011;59810;48.800;9.086;2023-02-15T07:19:13;25.60;;;11.90;;
71937;SDS011;59810;48.800;9.086;2023-02-15T07:21:41;25.80;;;11.90;;
71937;SDS011;59810;48.800;9.086;2023-02-15T07:24:06;27.63;;;10.63;;
71937;SDS011;59810;48.800;9.086;2023-02-15T07:26:32;26.63;;;11.10;;
71937;SDS011;59810;48.800;9.086;2023-02-15T07:28:57;30.13;;;12.77;;
71937;SDS011;59810;48.800;9.086;2023-02-15T07:31:22;28.13;;;12.48;;
71937;SDS011;59810;48.800;9.086;2023-02-15T07:33:48;29.80;;;13.03;;
71937;SDS011;59810;48.800;9.086;2023-02-15T07:36:13;30.90;;;13.67;;
71937;SDS011;59810;48.800;9.086;2023-02-15T07:38:40;36.33;;;13.83;;
71937;SDS011;59810;48.800;9.086;2023-02-15T07:41:10;37.72;;;13.48;;
71937;SDS011;59810;48.800;9.086;2023-02-15T07:43:38;37.10;;;13.85;;
71937;SDS011;59810;48.800;9.086;2023-02-15T07:46:06;80.53;;;14.25;;
71937;SDS011;59810;48.800;9.086;2023-02-15T07:48:34;52.45;;;15.23;;
71937;SDS011;59810;48.800;9.086;2023-02-15T07:51:01;53.90;;;14.37;;
71937;SDS011;59810;48.800;9.086;2023-02-15T07:53:27;48.67;;;13.57;;
71937;SDS011;59810;48.800;9.086;2023-02-15T07:55:53;38.67;;;13.10;;
71937;SDS011;59810;48.800;9.086;2023-02-15T07:58:18;32.50;;;13.23;;
71937;SDS011;59810;48.800;9.086;2023-02-15T08:01:06;31.55;;;12.32;;
71937;SDS011;59810;48.800;9.086;2023-02-15T08:03:32;35.33;;;12.02;;
71937;SDS011;59810;48.800;9.086;2023-02-15T08:05:58;42.37;;;13.97;;
71937;SDS011;59810;48.800;9.086;2023-02-15T08:08:25;33.15;;;13.88;;
71937;SDS011;59810;48.800;9.086;2023-02-15T08:11:14;33.97;;;13.63;;
71937;SDS011;59810;48.800;9.086;2023-02-15T08:18:59;30.52;;;12.65;;
71937;SDS011;59810;48.800;9.086;2023-02-15T08:21:27;31.13;;;12.98;;
71937;SDS011;59810;48.800;9.086;2023-02-15T08:23:54;34.67;;;13.93;;
71937;SDS011;59810;48.800;9.086;2023-02-15T08:26:20;35.17;;;13.02;;
71937;SDS011;59810;48.800;9.086;2023-02-15T08:28:46;35.28;;;12.73;;
71937;SDS011;59810;48.800;9.086;2023-02-15T08:31:12;31.07;;;12.77;;
71937;SDS011;59810;48.800;9.086;2023-02-15T08:33:41;31.02;;;12.68;;
71937;SDS011;59810;48.800;9.086;2023-02-15T08:36:08;24.38;;;11.32;;
71937;SDS011;59810;48.800;9.086;2023-02-15T08:38:41;33.00;;;12.47;;
71937;SDS011;59810;48.800;9.086;2023-02-15T08:41:11;30.00;;;12.18;;
71937;SDS011;59810;48.800;9.086;2023-02-15T08:43:40;30.20;;;11.93;;
71937;SDS011;59810;48.800;9.086;2023-02-15T08:46:06;31.33;;;12.82;;
71937;SDS011;59810;48.800;9.086;2023-02-15T08:48:32;28.87;;;11.90;;
71937;SDS011;59810;48.800;9.086;2023-02-15T08:51:13;25.90;;;10.73;;
71937;SDS011;59810;48.800;9.086;2023-02-15T08:53:44;25.27;;;11.73;;
71937;SDS011;59810;48.800;9.086;2023-02-15T08:56:21;29.65;;;12.23;;
71937;SDS011;59810;48.800;9.086;2023-02-15T08:58:48;27.40;;;11.87;;
71937;SDS011;59810;48.800;9.086;2023-02-15T09:01:14;28.95;;;12.60;;
71937;SDS011;59810;48.800;9.086;2023-02-15T09:03:48;29.58;;;11.85;;
71937;SDS011;59810;48.800;9.086;2023-02-15T09:06:16;25.70;;;12.90;;
71937;SDS011;59810;48.800;9.086;2023-02-15T09:08:41;31.13;;;12.97;;
71937;SDS011;59810;48.800;9.086;2023-02-15T09:13:41;29.70;;;12.65;;
71937;SDS011;59810;48.800;9.086;2023-02-15T09:16:08;27.00;;;13.50;;
71937;SDS011;59810;48.800;9.086;2023-02-15T09:18:36;27.83;;;12.73;;
71937;SDS011;59810;48.800;9.086;2023-02-15T09:21:16;32.10;;;13.77;;
71937;SDS011;59810;48.800;9.086;2023-02-15T09:23:45;30.67;;;12.90;;
71937;SDS011;59810;48.800;9.086;2023-02-15T09:26:13;29.65;;;12.70;;
71937;SDS011;59810;48.800;9.086;2023-02-15T09:28:40;24.65;;;12.23;;
71937;SDS011;59810;48.800;9.086;2023-02-15T09:31:16;32.10;;;13.97;;
71937;SDS011;59810;48.800;9.086;2023-02-15T09:33:43;34.95;;;13.23;;
71937;SDS011;59810;48.800;9.086;2023-02-15T09:36:17;28.08;;;12.35;;
71937;SDS011;59810;48.800;9.086;2023-02-15T09:38:44;31.27;;;13.25;;
71937;SDS011;59810;48.800;9.086;2023-02-15T10:00:25;29.00;;;13.00;;
71937;SDS011;59810;48.800;9.086;2023-02-15T10:08:34;29.27;;;13.90;;
71937;SDS011;59810;48.800;9.086;2023-02-15T10:11:11;31.50;;;14.03;;
71937;SDS011;59810;48.800;9.086;2023-02-15T10:27:40;36.10;;;16.33;;
71937;SDS011;59810;48.800;9.086;2023-02-15T10:30:13;33.20;;;14.82;;
71937;SDS011;59810;48.800;9.086;2023-02-15T10:33:14;35.08;;;15.50;;
71937;SDS011;59810;48.800;9.086;2023-02-15T10:35:55;36.17;;;15.48;;
71937;SDS011;59810;48.800;9.086;2023-02-15T11:01:34;32.80;;;15.75;;
71937;SDS011;59810;48.800;9.086;2023-02-15T11:06:59;35.22;;;15.80;;
71937;SDS011;59810;48.800;9.086;2023-02-15T11:09:33;31.90;;;15.93;;
71937;SDS011;59810;48.800;9.086;2023-02-15T11:12:13;32.90;;;14.95;;
71937;SDS011;59810;48.800;9.086;2023-02-15T11:17:28;32.47;;;15.77;;
71937;SDS011;59810;48.800;9.086;2023-02-15T11:22:46;31.13;;;14.60;;
71937;SDS011;59810;48.800;9.086;2023-02-15T11:25:18;30.27;;;14.77;;
71937;SDS011;59810;48.800;9.086;2023-02-15T11:27:50;32.38;;;15.18;;
71937;SDS011;59810;48.800;9.086;2023-02-15T11:30:21;31.13;;;15.07;;
71937;SDS011;59810;48.800;9.086;2023-02-15T11:32:50;30.92;;;15.32;;
71937;SDS011;59810;48.800;9.086;2023-02-15T11:35:24;30.60;;;14.20;;
71937;SDS011;59810;48.800;9.086;2023-02-15T11:43:12;30.65;;;14.95;;
71937;SDS011;59810;48.800;9.086;2023-02-15T11:45:42;33.20;;;15.30;;
71937;SDS011;59810;48.800;9.086;2023-02-15T11:48:11;29.40;;;14.57;;
71937;SDS011;59810;48.800;9.086;2023-02-15T11:50:38;31.48;;;16.25;;
71937;SDS011;59810;48.800;9.086;2023-02-15T11:53:06;31.55;;;14.52;;
71937;SDS011;59810;48.800;9.086;2023-02-15T11:55:37;30.40;;;14.65;;
71937;SDS011;59810;48.800;9.086;2023-02-15T11:58:04;30.47;;;15.73;;
71937;SDS011;59810;48.800;9.086;2023-02-15T12:00:42;32.97;;;16.15;;
71937;SDS011;59810;48.800;9.086;2023-02-15T12:05:56;31.05;;;15.80;;
71937;SDS011;59810;48.800;9.086;2023-02-15T12:08:26;33.55;;;15.32;;
71937;SDS011;59810;48.800;9.086;2023-02-15T12:11:12;32.17;;;15.23;;
71937;SDS011;59810;48.800;9.086;2023-02-15T12:13:55;30.83;;;15.27;;
71937;SDS011;59810;48.800;9.086;2023-02-15T12:16:23;32.67;;;15.23;;
71937;SDS011;59810;48.800;9.086;2023-02-15T12:18:49;31.63;;;15.82;;
71937;SDS011;59810;48.800;9.086;2023-02-15T12:21:32;27.77;;;15.02;;
71937;SDS011;59810;48.800;9.086;2023-02-15T12:27:13;28.70;;;15.45;;
71937;SDS011;59810;48.800;9.086;2023-02-15T12:29:40;32.35;;;16.23;;
71937;SDS011;59810;48.800;9.086;2023-02-15T12:32:10;29.42;;;16.45;;
71937;SDS011;59810;48.800;9.086;2023-02-15T12:34:41;28.58;;;15.63;;
71937;SDS011;59810;48.800;9.086;2023-02-15T12:37:15;30.00;;;15.63;;
71937;SDS011;59810;48.800;9.086;2023-02-15T12:39:51;34.20;;;16.52;;
71937;SDS011;59810;48.800;9.086;2023-02-15T12:42:17;32.58;;;17.10;;
71937;SDS011;59810;48.800;9.086;2023-02-15T12:47:21;31.60;;;16.88;;
71937;SDS011;59810;48.800;9.086;2023-02-15T12:52:33;30.55;;;17.35;;
71937;SDS011;59810;48.800;9.086;2023-02-15T12:55:17;30.40;;;16.48;;
71937;SDS011;59810;48.800;9.086;2023-02-15T12:57:43;29.65;;;16.23;;
71937;SDS011;59810;48.800;9.086;2023-02-15T13:02:44;31.83;;;16.87;;
71937;SDS011;59810;48.800;9.086;2023-02-15T13:05:18;30.20;;;16.75;;
71937;SDS011;59810;48.800;9.086;2023-02-15T13:07:55;33.40;;;17.20;;
71937;SDS011;59810;48.800;9.086;2023-02-15T13:13:02;32.03;;;16.65;;
71937;SDS011;59810;48.800;9.086;2023-02-15T13:15:36;49.87;;;17.97;;
71937;SDS011;59810;48.800;9.086;2023-02-15T13:18:05;31.38;;;15.95;;
71937;SDS011;59810;48.800;9.086;2023-02-15T13:20:37;27.85;;;15.82;;
71937;SDS011;59810;48.800;9.086;2023-02-15T13:23:06;33.05;;;17.30;;
71937;SDS011;59810;48.800;9.086;2023-02-15T13:25:45;28.23;;;15.15;;
71937;SDS011;59810;48.800;9.086;2023-02-15T13:28:15;26.43;;;15.07;;
71937;SDS011;59810;48.800;9.086;2023-02-15T13:30:43;29.00;;;16.55;;
71937;SDS011;59810;48.800;9.086;2023-02-15T13:44:21;32.17;;;14.48;;
71937;SDS011;59810;48.800;9.086;2023-02-15T13:49:48;28.35;;;15.88;;
71937;SDS011;59810;48.800;9.086;2023-02-15T13:52:25;28.38;;;15.93;;
71937;SDS011;59810;48.800;9.086;2023-02-15T13:57:29;29.02;;;15.55;;
71937;SDS011;59810;48.800;9.086;2023-02-15T14:00:22;26.23;;;14.75;;
71937;SDS011;59810;48.800;9.086;2023-02-15T14:11:02;30.35;;;16.65;;
71937;SDS011;59810;48.800;9.086;2023-02-15T14:21:59;27.67;;;15.83;;
71937;SDS011;59810;48.800;9.086;2023-02-15T14:30:09;28.75;;;16.00;;
71937;SDS011;59810;48.800;9.086;2023-02-15T14:32:47;29.10;;;15.98;;
71937;SDS011;59810;48.800;9.086;2023-02-15T14:35:20;29.03;;;16.93;;
71937;SDS011;59810;48.800;9.086;2023-02-15T14:43:41;30.60;;;16.60;;
71937;SDS011;59810;48.800;9.086;2023-02-15T14:54:54;36.80;;;17.42;;
71937;SDS011;59810;48.800;9.086;2023-02-15T15:07:08;31.48;;;16.27;;
71937;SDS011;59810;48.800;9.086;2023-02-15T15:09:42;31.17;;;17.98;;
71937;SDS011;59810;48.800;9.086;2023-02-15T15:12:36;31.00;;;16.42;;
71937;SDS011;59810;48.800;9.086;2023-02-15T15:15:02;31.30;;;17.37;;
71937;SDS011;59810;48.800;9.086;2023-02-15T15:22:38;30.23;;;16.73;;
71937;SDS011;59810;48.800;9.086;2023-02-15T15:43:35;31.88;;;17.00;;
71937;SDS011;59810;48.800;9.086;2023-02-15T15:48:45;27.50;;;15.40;;
71937;SDS011;59810;48.800;9.086;2023-02-15T15:51:18;28.08;;;16.10;;
71937;SDS011;59810;48.800;9.086;2023-02-15T15:53:57;31.07;;;16.10;;
71937;SDS011;59810;48.800;9.086;2023-02-15T15:56:24;30.13;;;16.70;;
71937;SDS011;59810;48.800;9.086;2023-02-15T15:58:56;30.77;;;16.67;;
71937;SDS011;59810;48.800;9.086;2023-02-15T16:01:29;30.23;;;14.35;;
71937;SDS011;59810;48.800;9.086;2023-02-15T16:03:57;28.30;;;14.60;;
71937;SDS011;59810;48.800;9.086;2023-02-15T16:06:41;29.40;;;16.30;;
71937;SDS011;59810;48.800;9.086;2023-02-15T16:09:15;27.35;;;14.85;;
71937;SDS011;59810;48.800;9.086;2023-02-15T16:11:45;41.67;;;19.80;;
71937;SDS011;59810;48.800;9.086;2023-02-15T16:14:15;45.45;;;22.42;;
71937;SDS011;59810;48.800;9.086;2023-02-15T16:16:48;39.53;;;20.55;;
71937;SDS011;59810;48.800;9.086;2023-02-15T16:19:20;33.60;;;17.70;;
71937;SDS011;59810;48.800;9.086;2023-02-15T16:21:49;33.65;;;17.73;;
71937;SDS011;59810;48.800;9.086;2023-02-15T16:29:17;27.98;;;15.32;;
71937;SDS011;59810;48.800;9.086;2023-02-15T16:31:58;30.10;;;14.60;;
71937;SDS011;59810;48.800;9.086;2023-02-15T16:34:25;27.50;;;13.38;;
71937;SDS011;59810;48.800;9.086;2023-02-15T16:37:11;34.90;;;15.90;;
71937;SDS011;59810;48.800;9.086;2023-02-15T16:39:40;37.40;;;15.90;;
71937;SDS011;59810;48.800;9.086;2023-02-15T16:42:07;32.97;;;15.88;;
71937;SDS011;59810;48.800;9.086;2023-02-15T16:44:33;35.15;;;15.60;;
71937;SDS011;59810;48.800;9.086;2023-02-15T16:46:58;30.60;;;15.40;;
71937;SDS011;59810;48.800;9.086;2023-02-15T16:49:28;30.70;;;16.10;;
71937;SDS011;59810;48.800;9.086;2023-02-15T16:51:58;27.13;;;15.23;;
71937;SDS011;59810;48.800;9.086;2023-02-15T16:54:26;34.38;;;17.58;;
71937;SDS011;59810;48.800;9.086;2023-02-15T16:56:56;30.15;;;15.18;;
71937;SDS011;59810;48.800;9.086;2023-02-15T16:59:41;32.13;;;15.13;;
71937;SDS011;59810;48.800;9.086;2023-02-15T17:02:13;32.28;;;15.52;;
71937;SDS011;59810;48.800;9.086;2023-02-15T17:04:42;29.67;;;14.75;;
71937;SDS011;59810;48.800;9.086;2023-02-15T17:07:15;40.57;;;18.57;;
71937;SDS011;59810;48.800;9.086;2023-02-15T17:09:53;33.42;;;15.77;;
71937;SDS011;59810;48.800;9.086;2023-02-15T17:15:30;29.33;;;15.45;;
71937;SDS011;59810;48.800;9.086;2023-02-15T17:18:08;32.73;;;17.13;;
71937;SDS011;59810;48.800;9.086;2023-02-15T17:20:39;34.80;;;16.42;;
71937;SDS011;59810;48.800;9.086;2023-02-15T17:23:15;42.90;;;16.90;;
71937;SDS011;59810;48.800;9.086;2023-02-15T17:25:46;30.20;;;15.95;;
71937;SDS011;59810;48.800;9.086;2023-02-15T17:28:16;34.40;;;16.60;;
71937;SDS011;59810;48.800;9.086;2023-02-15T17:30:43;37.55;;;18.45;;
71937;SDS011;59810;48.800;9.086;2023-02-15T17:33:35;32.17;;;17.55;;
71937;SDS011;59810;48.800;9.086;2023-02-15T17:36:05;34.80;;;16.47;;
71937;SDS011;59810;48.800;9.086;2023-02-15T17:38:31;34.17;;;16.92;;
71937;SDS011;59810;48.800;9.086;2023-02-15T17:40:57;36.20;;;16.75;;
71937;SDS011;59810;48.800;9.086;2023-02-15T17:43:23;32.67;;;16.60;;
71937;SDS011;59810;48.800;9.086;2023-02-15T17:45:49;29.52;;;15.27;;
71937;SDS011;59810;48.800;9.086;2023-02-15T17:48:26;30.52;;;13.73;;
71937;SDS011;59810;48.800;9.086;2023-02-15T17:50:57;30.73;;;14.73;;
71937;SDS011;59810;48.800;9.086;2023-02-15T17:53:23;27.60;;;13.20;;
71937;SDS011;59810;48.800;9.086;2023-02-15T17:55:50;24.48;;;12.55;;
71937;SDS011;59810;48.800;9.086;2023-02-15T17:58:20;26.95;;;12.90;;
71937;SDS011;59810;48.800;9.086;2023-02-15T18:00:56;23.67;;;10.85;;
71937;SDS011;59810;48.800;9.086;2023-02-15T18:03:49;17.45;;;8.48;;
71937;SDS011;59810;48.800;9.086;2023-02-15T18:06:35;18.07;;;8.63;;
71937;SDS011;59810;48.800;9.086;2023-02-15T18:09:21;19.52;;;8.20;;
71937;SDS011;59810;48.800;9.086;2023-02-15T18:12:28;16.67;;;7.13;;
71937;SDS011;59810;48.800;9.086;2023-02-15T18:14:52;16.25;;;6.35;;
71937;SDS011;59810;48.800;9.086;2023-02-15T18:17:31;21.10;;;6.97;;
71937;SDS011;59810;48.800;9.086;2023-02-15T18:20:10;19.70;;;6.37;;
71937;SDS011;59810;48.800;9.086;2023-02-15T18:22:43;19.42;;;6.60;;
71937;SDS011;59810;48.800;9.086;2023-02-15T18:25:13;18.10;;;7.18;;
71937;SDS011;59810;48.800;9.086;2023-02-15T18:27:43;18.40;;;6.68;;
71937;SDS011;59810;48.800;9.086;2023-02-15T18:30:15;17.88;;;6.32;;
71937;SDS011;59810;48.800;9.086;2023-02-15T18:32:42;16.13;;;6.23;;
71937;SDS011;59810;48.800;9.086;2023-02-15T18:35:17;15.07;;;5.38;;